Time;durP1;ratioP1;P1;durP2;ratioP2;P2;SDS_P1;SDS_P2;PMS_P1;PMS_P2;Temp;Humidity;BMP_temperature;BMP_pressure;BME280_temperature;BME280_humidity;BME280_pressure;Samples;Min_cycle;Max_cycle;Signal;HPM_P1;HPM_P2
2021/01/03 00:01:07;;;;;;;48.25;28.55;;;-1.80;1.40;;;-0.85;100.00;94434.32;649690;215;31590;-73
2021/01/03 00:03:36;;;;;;;48.63;24.53;;;-1.80;1.40;;;-0.83;100.00;94434.28;655108;215;23445;-73
2021/01/03 00:06:05;;;;;;;38.60;22.60;;;-1.70;1.40;;;-1.11;100.00;94425.11;656896;215;25063;-72
2021/01/03 00:08:33;;;;;;;48.07;24.27;;;-1.90;1.40;;;-1.17;100.00;94426.70;657132;215;24486;-72
2021/01/03 00:11:01;;;;;;;40.63;21.87;;;-1.90;1.40;;;-1.17;100.00;94425.79;653844;215;24468;-72
2021/01/03 00:13:30;;;;;;;43.23;19.90;;;-1.90;1.40;;;-1.19;100.00;94423.06;642360;221;24611;-72
2021/01/03 00:15:58;;;;;;;52.97;23.83;;;-1.90;1.40;;;-1.16;100.00;94418.14;656986;216;24476;-73
2021/01/03 00:18:27;;;;;;;38.17;20.00;;;-1.90;1.40;;;-1.17;100.00;94414.95;640166;221;24985;-73
2021/01/03 00:20:55;;;;;;;44.57;21.90;;;-1.90;1.40;;;-1.28;100.00;94418.81;642974;220;24522;-71
2021/01/03 00:23:23;;;;;;;43.17;23.80;;;-1.90;1.40;;;-1.20;100.00;94418.59;637362;223;24581;-71
2021/01/03 00:25:52;;;;;;;51.83;29.35;;;-1.90;1.40;;;-1.20;100.00;94412.58;624492;224;31970;-73
2021/01/03 00:28:20;;;;;;;55.40;25.83;;;-1.90;1.40;;;-1.37;100.00;94414.52;654544;216;26607;-72
2021/01/03 00:30:49;;;;;;;44.63;24.03;;;-1.90;1.40;;;-1.39;100.00;94417.38;659970;216;24472;-72
2021/01/03 00:33:17;;;;;;;44.57;24.40;;;-1.90;1.40;;;-1.39;100.00;94423.12;658691;216;24544;-72
2021/01/03 00:35:45;;;;;;;49.63;24.60;;;-1.90;1.40;;;-1.22;100.00;94422.41;657457;216;24551;-72
2021/01/03 00:38:14;;;;;;;52.07;21.90;;;-1.80;1.40;;;-1.36;100.00;94424.58;658215;216;29706;-72
2021/01/03 00:40:42;;;;;;;48.83;23.03;;;-1.90;1.40;;;-1.27;100.00;94429.50;655602;216;24564;-72
2021/01/03 00:43:11;;;;;;;49.43;24.80;;;-1.80;1.40;;;-1.20;100.00;94428.48;653767;216;24484;-71
2021/01/03 00:45:39;;;;;;;46.83;22.90;;;-1.80;1.40;;;-1.28;100.00;94419.61;656543;215;24478;-72
2021/01/03 00:48:08;;;;;;;48.87;24.00;;;-1.80;1.40;;;-1.32;100.00;94420.46;659784;215;24488;-72
2021/01/03 00:50:36;;;;;;;41.63;23.27;;;-1.80;1.40;;;-1.34;100.00;94423.20;657999;215;25049;-73
2021/01/03 00:53:05;;;;;;;42.13;22.70;;;-1.90;1.40;;;-1.33;100.00;94421.19;659563;215;25881;-73
2021/01/03 00:55:33;;;;;;;40.03;20.10;;;-1.90;1.40;;;-1.32;100.00;94421.95;658030;215;29783;-73
2021/01/03 00:58:01;;;;;;;48.17;22.77;;;-1.90;1.40;;;-1.41;100.00;94429.70;655780;215;24508;-73
2021/01/03 01:00:30;;;;;;;56.07;24.20;;;-1.90;1.40;;;-1.29;100.00;94429.23;657395;215;24497;-72
2021/01/03 01:02:58;;;;;;;39.90;22.23;;;-1.90;1.40;;;-1.40;100.00;94428.27;656484;215;24492;-72
2021/01/03 01:08:01;;;;;;;53.90;30.60;;;-1.90;1.40;;;-1.36;100.00;94430.37;649640;216;31576;-73
2021/01/03 01:10:29;;;;;;;53.80;27.00;;;-1.80;1.40;;;-1.36;100.00;94432.18;642414;221;23477;-73
2021/01/03 01:12:58;;;;;;;47.40;23.10;;;-1.90;1.40;;;-1.24;100.00;94437.13;641839;221;24571;-73
2021/01/03 01:15:26;;;;;;;42.47;21.43;;;-1.80;1.40;;;-1.18;100.00;94432.11;650737;220;24525;-73
2021/01/03 01:17:54;;;;;;;41.40;21.47;;;-1.80;1.40;;;-1.17;100.00;94433.34;668609;211;28757;-73
2021/01/03 01:20:23;;;;;;;44.60;21.40;;;-1.80;1.40;;;-1.18;100.00;94444.55;668443;211;24424;-72
2021/01/03 01:22:51;;;;;;;53.37;23.23;;;-1.80;1.40;;;-1.26;100.00;94444.61;667990;211;26589;-72
2021/01/03 01:25:20;;;;;;;45.17;20.43;;;-1.80;1.40;;;-1.30;100.00;94446.49;670575;211;24451;-71
2021/01/03 01:27:48;;;;;;;49.27;22.30;;;-1.80;1.40;;;-1.26;100.00;94446.31;667741;211;24727;-71
2021/01/03 01:30:17;;;;;;;52.80;30.65;;;-1.80;1.40;;;-1.19;100.00;94442.53;664273;211;31474;-73
2021/01/03 01:32:45;;;;;;;46.97;25.03;;;-1.70;1.40;;;-1.26;100.00;94444.19;639970;220;23506;-71
2021/01/03 01:35:13;;;;;;;46.27;22.47;;;-1.80;1.40;;;-1.30;100.00;94449.73;670623;211;24768;-72
2021/01/03 01:37:42;;;;;;;42.30;22.00;;;-1.80;1.40;;;-1.21;100.00;94447.09;668150;211;24985;-72
2021/01/03 01:40:11;;;;;;;49.90;28.15;;;-1.80;1.40;;;-1.12;100.00;94456.55;656081;211;31699;-71
2021/01/03 01:42:39;;;;;;;46.37;24.80;;;-1.70;1.40;;;-1.09;100.00;94454.42;655850;215;23643;-71
2021/01/03 01:45:09;;;;;;;51.55;28.70;;;-1.70;1.40;;;-1.01;100.00;94455.43;647376;216;31769;-72
2021/01/03 01:47:38;;;;;;;52.50;25.37;;;-1.70;1.40;;;-1.12;100.00;94455.12;659109;215;23450;-73
2021/01/03 01:50:09;;;;;;;53.50;29.12;;;-1.70;1.40;;;-1.04;100.00;94454.77;653006;215;31584;-71
2021/01/03 01:52:39;;;;;;;49.07;25.33;;;-1.70;1.40;;;-1.04;100.00;94455.62;657896;216;23453;-71
2021/01/03 01:55:08;;;;;;;55.27;24.50;;;-1.70;1.40;;;-1.13;100.00;94452.03;656108;216;24498;-72
2021/01/03 01:57:40;;;;;;;46.93;22.63;;;-1.70;1.40;;;-1.00;100.00;94448.62;656622;216;24496;-71
2021/01/03 02:00:12;;;;;;;59.92;30.75;;;-1.60;1.40;;;-1.07;100.00;94445.03;649551;216;31826;-72
2021/01/03 02:03:12;;;;;;;58.30;32.17;;;-1.70;1.40;;;-0.92;100.00;94449.45;651147;215;31595;-72
2021/01/03 02:06:02;;;;;;;59.38;32.97;;;-1.70;1.40;;;-0.81;100.00;94449.56;650954;216;31551;-72
2021/01/03 02:08:47;;;;;;;59.60;31.90;;;-1.60;1.40;;;-0.82;100.00;94445.19;644699;212;31613;-73
2021/01/03 02:11:16;;;;;;;44.10;23.70;;;-1.60;1.40;;;-0.78;100.00;94442.39;653958;218;24496;-72
2021/01/03 02:13:45;;;;;;;54.42;29.08;;;-1.60;1.40;;;-0.92;100.00;94442.27;661023;211;31446;-72
2021/01/03 02:16:14;;;;;;;52.22;30.90;;;-1.60;1.40;;;-0.91;100.00;94443.59;662981;211;31499;-72
2021/01/03 02:18:42;;;;;;;56.07;24.40;;;-1.60;1.40;;;-1.01;100.00;94440.43;668970;211;23432;-72
2021/01/03 02:21:19;;;;;;;46.33;27.92;;;-1.70;1.40;;;-1.04;100.00;94439.35;663749;211;31480;-74
2021/01/03 02:24:09;;;;;;;43.40;24.03;;;-1.60;1.40;;;-1.03;100.00;94437.44;670743;211;23435;-72
2021/01/03 02:26:48;;;;;;;48.97;27.50;;;-1.60;1.40;;;-1.00;100.00;94433.52;646021;216;31573;-73
2021/01/03 02:29:16;;;;;;;44.00;21.80;;;-1.60;1.40;;;-1.08;100.00;94427.41;643436;221;23486;-72
2021/01/03 02:31:46;;;;;;;46.17;23.20;;;-1.60;1.40;;;-1.09;100.00;94428.58;640872;221;24520;-73
2021/01/03 02:34:14;;;;;;;42.73;23.83;;;-1.60;1.40;;;-1.07;100.00;94426.30;641537;219;24524;-71
2021/01/03 02:36:42;;;;;;;37.60;22.00;;;-1.70;1.40;;;-1.13;100.00;94429.00;671189;211;24447;-72
2021/01/03 02:39:27;;;;;;;45.60;20.60;;;-1.70;1.40;;;-1.13;100.00;94427.30;666222;211;24492;-71
2021/01/03 02:41:55;;;;;;;41.67;20.73;;;-1.60;1.40;;;-1.12;100.00;94424.12;661383;215;24501;-72
2021/01/03 02:44:24;;;;;;;45.88;25.30;;;-1.60;1.40;;;-1.14;100.00;94423.36;652092;215;31621;-73
2021/01/03 02:46:52;;;;;;;41.93;22.50;;;-1.60;1.40;;;-1.19;100.00;94422.33;644652;221;23876;-73
2021/01/03 02:49:21;;;;;;;38.47;19.93;;;-1.70;1.40;;;-1.18;100.00;94419.24;629038;225;24563;-73
2021/01/03 02:51:49;;;;;;;37.00;19.77;;;-1.70;1.40;;;-1.15;100.00;94416.17;633157;225;24557;-74
2021/01/03 02:54:18;;;;;;;30.30;20.50;;;-1.70;1.40;;;-1.15;100.00;94417.61;656997;215;26847;-72
2021/01/03 02:56:46;;;;;;;37.50;20.97;;;-1.60;1.40;;;-1.14;100.00;94420.27;641830;221;24542;-73
2021/01/03 02:59:14;;;;;;;40.07;17.50;;;-1.60;1.40;;;-1.09;100.00;94413.26;658644;215;29767;-72
2021/01/03 03:01:43;;;;;;;37.07;18.50;;;-1.60;1.40;;;-1.22;100.00;94408.21;640064;220;24551;-72
2021/01/03 03:04:11;;;;;;;38.83;19.13;;;-1.70;1.40;;;-1.25;100.00;94410.96;654399;215;24491;-72
2021/01/03 03:06:40;;;;;;;37.10;18.93;;;-1.70;1.40;;;-1.24;100.00;94411.39;645072;221;25324;-73
2021/01/03 03:09:08;;;;;;;46.55;24.85;;;-1.70;1.40;;;-1.26;100.00;94406.33;636226;221;31899;-73
2021/01/03 03:11:37;;;;;;;44.97;22.60;;;-1.70;1.40;;;-1.27;100.00;94402.87;657334;216;27737;-73
2021/01/03 03:14:05;;;;;;;44.95;24.75;;;-1.70;1.40;;;-1.29;100.00;94403.06;652023;215;31644;-72
2021/01/03 03:16:33;;;;;;;42.37;20.90;;;-1.70;1.40;;;-1.29;100.00;94407.64;657956;216;23441;-73
2021/01/03 03:19:02;;;;;;;40.03;20.10;;;-1.70;1.40;;;-1.27;100.00;94413.55;655916;216;24498;-72
2021/01/03 03:21:30;;;;;;;35.27;20.80;;;-1.70;1.40;;;-1.25;100.00;94413.56;643982;221;24527;-72
2021/01/03 03:23:59;;;;;;;48.00;26.20;;;-1.70;1.40;;;-1.22;100.00;94409.92;649178;215;31813;-73
2021/01/03 03:26:27;;;;;;;44.80;25.30;;;-1.70;1.40;;;-1.12;100.00;94413.33;635756;221;31695;-73
2021/01/03 03:28:55;;;;;;;39.30;21.07;;;-1.60;1.40;;;-1.17;100.00;94418.45;640513;223;23588;-72
2021/01/03 03:31:27;;;;;;;34.30;19.97;;;-1.60;1.40;;;-1.09;100.00;94423.89;642297;221;24538;-72
2021/01/03 03:33:55;;;;;;;36.70;19.30;;;-1.60;1.40;;;-1.11;100.00;94426.70;639756;220;24536;-73
2021/01/03 03:36:23;;;;;;;40.37;20.13;;;-1.60;1.40;;;-1.06;100.00;94425.03;642967;219;24529;-73
2021/01/03 03:38:52;;;;;;;32.33;17.73;;;-1.50;1.40;;;-1.04;100.00;94426.48;657110;215;24474;-72
2021/01/03 03:41:21;;;;;;;38.70;20.13;;;-1.50;1.40;;;-1.00;100.00;94432.62;659448;215;24478;-72
2021/01/03 03:43:49;;;;;;;37.83;18.77;;;-1.50;1.40;;;-0.97;100.00;94431.89;658113;215;24506;-73
2021/01/03 03:46:18;;;;;;;41.27;19.77;;;-1.50;1.40;;;-1.05;100.00;94435.41;645411;221;24526;-72
2021/01/03 03:48:46;;;;;;;37.77;19.57;;;-1.50;1.40;;;-0.98;100.00;94435.02;654167;215;29813;-72
2021/01/03 03:51:17;;;;;;;39.63;19.17;;;-1.50;1.40;;;-0.99;100.00;94428.42;655790;215;24463;-73
2021/01/03 03:53:46;;;;;;;36.73;21.23;;;-1.50;1.40;;;-0.89;100.00;94427.75;655415;215;24482;-73
2021/01/03 03:56:14;;;;;;;39.37;20.03;;;-1.50;1.40;;;-0.99;100.00;94419.81;652800;215;24513;-72
2021/01/03 03:58:42;;;;;;;41.97;20.47;;;-1.50;1.40;;;-1.01;100.00;94414.10;654735;215;25586;-73
2021/01/03 04:01:11;;;;;;;47.88;26.45;;;-1.50;1.40;;;-0.99;100.00;94411.72;652512;215;31639;-73
2021/01/03 04:03:39;;;;;;;45.10;22.03;;;-1.50;1.40;;;-1.00;100.00;94411.61;654501;215;23455;-72
2021/01/03 04:06:08;;;;;;;38.60;22.83;;;-1.50;1.40;;;-0.98;100.00;94414.59;656187;215;24525;-72
2021/01/03 04:08:36;;;;;;;36.20;20.00;;;-1.50;1.40;;;-1.08;100.00;94406.94;640380;220;28797;-72
2021/01/03 04:11:05;;;;;;;38.43;20.37;;;-1.50;1.40;;;-1.06;100.00;94407.53;641751;220;24523;-72
2021/01/03 04:13:33;;;;;;;33.90;18.63;;;-1.50;1.40;;;-0.95;100.00;94405.78;627516;224;25950;-72
2021/01/03 04:16:01;;;;;;;50.50;24.73;;;-1.50;1.40;;;-0.91;100.00;94397.16;625447;225;43073;-72
2021/01/03 04:18:30;;;;;;;43.80;22.33;;;-1.50;1.40;;;-0.99;100.00;94401.45;629434;225;23988;-72
2021/01/03 04:20:58;;;;;;;36.80;19.50;;;-1.50;1.40;;;-1.00;100.00;94395.48;628241;225;24570;-72
2021/01/03 04:23:27;;;;;;;31.20;17.80;;;-1.50;1.40;;;-1.04;100.00;94393.66;631818;225;24571;-72
2021/01/03 04:25:55;;;;;;;45.83;25.17;;;-1.50;1.40;;;-1.10;100.00;94390.49;624555;225;32496;-71
2021/01/03 04:28:23;;;;;;;34.90;21.17;;;-1.50;1.40;;;-1.04;100.00;94387.23;660241;215;23450;-71
2021/01/03 04:30:52;;;;;;;40.63;20.80;;;-1.60;1.40;;;-1.14;100.00;94388.05;657000;216;24665;-72
2021/01/03 04:33:20;;;;;;;38.07;22.33;;;-1.50;1.40;;;-1.17;100.00;94393.14;656613;216;24470;-72
2021/01/03 04:35:49;;;;;;;34.97;19.40;;;-1.60;1.40;;;-1.05;100.00;94395.47;653168;215;24501;-73
2021/01/03 04:38:17;;;;;;;47.75;26.15;;;-1.50;1.40;;;-0.94;100.00;94395.73;651850;216;31780;-71
2021/01/03 04:40:46;;;;;;;55.12;29.02;;;-1.50;1.40;;;-0.82;100.00;94395.98;650692;216;31557;-73
2021/01/03 04:43:15;;;;;;;51.00;22.97;;;-1.50;1.40;;;-0.79;100.00;94393.54;641287;220;23472;-73
2021/01/03 04:45:43;;;;;;;49.57;22.77;;;-1.50;1.40;;;-0.89;100.00;94400.89;642871;221;24519;-71
2021/01/03 04:48:21;;;;;;;42.53;23.40;;;-1.50;1.40;;;-0.96;100.00;94404.88;655248;216;24502;-75
2021/01/03 04:51:07;;;;;;;41.37;21.67;;;-1.50;1.40;;;-0.97;100.00;94404.50;655677;215;24542;-72
2021/01/03 04:53:57;;;;;;;49.67;27.15;;;-1.50;1.40;;;-0.92;100.00;94406.94;639017;220;31765;-72
2021/01/03 04:56:31;;;;;;;48.73;23.43;;;-1.50;1.40;;;-1.00;100.00;94406.77;643428;220;27764;-72
2021/01/03 04:59:07;;;;;;;38.50;23.00;;;-1.50;1.40;;;-0.96;100.00;94401.95;659934;215;26601;-72
2021/01/03 05:01:58;;;;;;;41.20;22.17;;;-1.50;1.40;;;-0.93;100.00;94410.55;656370;215;25511;-72
2021/01/03 05:05:06;;;;;;;55.85;29.37;;;-1.40;1.40;;;-0.96;100.00;94412.75;646935;216;31691;-72
2021/01/03 05:07:45;;;;;;;47.83;28.27;;;-1.50;1.40;;;-0.93;100.00;94412.06;645075;216;32243;-71
2021/01/03 05:10:16;;;;;;;46.50;23.63;;;-1.40;1.40;;;-0.83;100.00;94417.67;645849;221;23568;-72
2021/01/03 05:13:09;;;;;;;43.93;24.57;;;-1.40;1.40;;;-0.79;100.00;94413.33;642288;221;24593;-72
2021/01/03 05:15:47;;;;;;;48.53;28.50;;;-1.40;1.40;;;-0.85;100.00;94416.60;648246;216;31629;-72
2021/01/03 05:18:15;;;;;;;47.80;25.47;;;-1.40;1.40;;;-0.80;100.00;94415.78;641738;220;23894;-72
2021/01/03 05:20:44;;;;;;;39.63;20.53;;;-1.40;1.40;;;-0.77;100.00;94419.57;641183;221;25624;-72
2021/01/03 05:25:46;;;;;;;46.15;27.00;;;-1.40;1.40;;;-0.99;100.00;94423.05;645229;214;31646;-72
2021/01/03 05:28:25;;;;;;;39.00;21.70;;;-1.40;1.40;;;-1.02;100.00;94420.11;641067;220;23528;-72
2021/01/03 05:30:54;;;;;;;34.97;21.57;;;-1.40;1.40;;;-0.95;100.00;94415.67;643387;220;25561;-73
2021/01/03 05:35:51;;;;;;;43.17;26.48;;;-1.40;1.40;;;-0.91;100.00;94414.13;648072;216;31908;-72
2021/01/03 05:38:32;;;;;;;49.70;23.80;;;-1.40;1.40;;;-0.78;100.00;94416.53;635167;221;23504;-72
2021/01/03 05:41:06;;;;;;;42.77;23.70;;;-1.30;1.40;;;-0.85;100.00;94416.60;645453;219;25068;-72
2021/01/03 05:43:34;;;;;;;36.83;21.43;;;-1.40;1.40;;;-0.93;100.00;94424.59;657372;215;24625;-72
2021/01/03 05:46:17;;;;;;;34.97;21.60;;;-1.40;1.40;;;-0.99;100.00;94428.58;657780;215;24488;-72
2021/01/03 05:49:02;;;;;;;40.70;23.03;;;-1.40;1.40;;;-0.97;100.00;94421.25;642127;221;24542;-72
2021/01/03 05:51:44;;;;;;;47.57;27.67;;;-1.40;1.40;;;-0.89;100.00;94421.64;644563;216;31724;-72
2021/01/03 05:54:14;;;;;;;43.03;28.15;;;-1.40;1.40;;;-0.85;100.00;94420.75;635459;220;31884;-71
2021/01/03 05:56:42;;;;;;;44.40;27.90;;;-1.40;1.40;;;-0.87;100.00;94423.67;635482;221;33413;-72
2021/01/03 05:59:16;;;;;;;43.22;27.20;;;-1.40;1.40;;;-0.83;100.00;94426.35;636231;221;31782;-71
2021/01/03 06:01:45;;;;;;;39.63;23.60;;;-1.40;1.40;;;-0.89;100.00;94433.08;638181;221;23473;-71
2021/01/03 06:09:22;;;;;;;41.97;27.23;;;-1.40;1.40;;;-0.72;100.00;94438.67;645173;212;31625;-73
2021/01/03 06:14:25;;;;;;;43.30;24.83;;;-1.40;1.40;;;-0.73;100.00;94436.91;645812;216;31596;-72
2021/01/03 06:16:53;;;;;;;39.17;22.83;;;-1.40;1.40;;;-0.67;100.00;94442.41;642007;220;23550;-72
2021/01/03 06:19:27;;;;;;;40.70;25.55;;;-1.30;1.40;;;-0.66;100.00;94443.06;643498;220;31839;-72
2021/01/03 06:21:56;;;;;;;39.70;22.30;;;-1.30;1.40;;;-0.74;100.00;94447.86;669749;211;23431;-73
2021/01/03 06:24:25;;;;;;;37.17;20.23;;;-1.30;1.40;;;-0.78;100.00;94445.53;642058;221;24516;-73
2021/01/03 06:26:53;;;;;;;32.83;20.63;;;-1.30;1.40;;;-0.78;100.00;94445.16;669927;211;25522;-72
2021/01/03 06:29:37;;;;;;;31.80;18.10;;;-1.30;1.40;;;-0.82;100.00;94440.88;670647;211;24439;-72
2021/01/03 06:32:11;;;;;;;31.07;18.70;;;-1.30;1.40;;;-0.80;100.00;94445.41;671824;211;24439;-72
2021/01/03 06:34:42;;;;;;;32.70;19.53;;;-1.30;1.40;;;-0.88;100.00;94447.02;639381;220;24539;-72
2021/01/03 06:37:11;;;;;;;37.37;21.10;;;-1.30;1.40;;;-0.82;100.00;94439.77;670041;211;24444;-72
2021/01/03 06:39:41;;;;;;;34.27;18.80;;;-1.30;1.40;;;-0.81;100.00;94442.64;660731;213;24502;-72
2021/01/03 06:42:50;;;;;;;36.70;19.50;;;-1.30;1.40;;;-0.84;100.00;94442.25;645066;220;28981;-72
2021/01/03 06:46:00;;;;;;;42.33;23.85;;;-1.30;1.40;;;-0.80;100.00;94450.25;647947;216;31615;-72
2021/01/03 06:48:52;;;;;;;44.10;27.02;;;-1.30;1.40;;;-0.72;100.00;94450.48;646743;216;31594;-72
2021/01/03 06:51:50;;;;;;;44.33;27.65;;;-1.30;1.40;;;-0.69;100.00;94449.54;637768;221;31723;-72
2021/01/03 06:57:51;;;;;;;41.47;27.05;;;-1.20;1.40;;;-0.64;100.00;94451.91;647972;216;31563;-72
2021/01/03 07:00:53;;;;;;;37.75;25.37;;;-1.20;1.40;;;-0.70;100.00;94456.88;647792;216;32183;-72
2021/01/03 07:03:24;;;;;;;38.47;24.75;;;-1.30;1.40;;;-0.50;100.00;94460.24;634379;221;31843;-72
2021/01/03 07:06:07;;;;;;;33.40;21.10;;;-1.20;1.40;;;-0.57;100.00;94468.12;639642;220;23557;-72
2021/01/03 07:08:40;;;;;;;31.43;18.40;;;-1.20;1.40;;;-0.55;100.00;94467.94;641095;220;24520;-72
2021/01/03 07:11:27;;;;;;;28.73;18.30;;;-1.20;1.40;;;-0.49;100.00;94466.64;638789;221;24520;-72
2021/01/03 07:13:55;;;;;;;29.27;17.93;;;-1.20;1.40;;;-0.54;100.00;94469.80;640439;221;24528;-72
2021/01/03 07:17:07;;;;;;;31.20;17.77;;;-1.20;1.40;;;-0.49;100.00;94468.34;638853;221;24574;-74
2021/01/03 07:19:38;;;;;;;36.47;21.50;;;-1.20;1.40;;;-0.60;100.00;94468.31;643536;221;24540;-73
2021/01/03 07:22:10;;;;;;;39.87;17.77;;;-1.20;1.40;;;-0.51;100.00;94466.52;640914;220;24520;-73
2021/01/03 07:25:05;;;;;;;38.58;23.10;;;-1.10;1.40;;;-0.49;100.00;94466.80;633142;221;31811;-72
2021/01/03 07:27:44;;;;;;;38.28;24.30;;;-1.10;1.40;;;-0.52;100.00;94475.30;648556;215;31660;-73
2021/01/03 07:30:16;;;;;;;36.08;23.52;;;-1.10;1.40;;;-0.59;100.00;94475.66;638206;221;31930;-73
2021/01/03 07:32:48;;;;;;;37.10;20.93;;;-1.10;1.40;;;-0.53;100.00;94480.03;640505;221;23496;-72
2021/01/03 07:37:52;;;;;;;32.25;20.85;;;-1.10;1.40;;;-0.54;100.00;94480.34;646406;216;31618;-72
2021/01/03 07:40:23;;;;;;;31.50;19.40;;;-1.10;1.40;;;-0.53;100.00;94483.33;632978;224;23526;-73
2021/01/03 07:43:02;;;;;;;32.93;18.33;;;-1.10;1.40;;;-0.53;100.00;94486.62;644055;220;24542;-74
2021/01/03 07:45:43;;;;;;;25.73;16.53;;;-1.10;1.40;;;-0.43;100.00;94486.95;654989;215;24467;-72
2021/01/03 07:48:42;;;;;;;28.13;16.97;;;-1.10;1.40;;;-0.43;100.00;94484.13;655575;215;24586;-72
2021/01/03 07:51:11;;;;;;;27.43;17.10;;;-1.10;1.40;;;-0.47;100.00;94483.68;643128;221;24557;-74
2021/01/03 07:53:39;;;;;;;32.40;17.60;;;-1.00;1.40;;;-0.50;100.00;94484.52;656738;215;24474;-72
2021/01/03 07:56:12;;;;;;;31.97;18.43;;;-1.00;1.40;;;-0.44;100.00;94485.61;643631;221;25984;-72
2021/01/03 07:58:41;;;;;;;36.10;18.73;;;-1.00;1.40;;;-0.41;100.00;94485.78;629166;225;24669;-72
2021/01/03 08:01:09;;;;;;;29.83;17.30;;;-1.00;1.40;;;-0.35;100.00;94486.31;629496;225;24533;-72
2021/01/03 08:03:39;;;;;;;28.43;16.63;;;-1.00;1.40;;;-0.35;100.00;94491.31;630540;224;24586;-72
2021/01/03 08:06:08;;;;;;;37.72;21.77;;;-0.90;1.40;;;-0.22;100.00;94492.75;652825;215;31593;-72
2021/01/03 08:08:37;;;;;;;28.80;18.07;;;-0.90;1.40;;;-0.42;100.00;94497.44;642088;220;23476;-73
2021/01/03 08:13:48;;;;;;;34.83;21.90;;;-0.90;1.40;;;-0.32;100.00;94503.63;649522;216;31790;-72
2021/01/03 08:16:21;;;;;;;33.03;17.87;;;-0.90;1.40;;;-0.21;100.00;94500.80;641427;221;25057;-73
2021/01/03 08:19:04;;;;;;;26.90;18.03;;;-0.90;1.40;;;-0.09;100.00;94504.38;639170;221;24536;-72
2021/01/03 08:21:28;;;;;;;26.90;17.53;;;-0.80;1.40;;;-0.12;100.00;94500.96;640635;220;24876;-72
2021/01/03 08:24:12;;;;;;;37.67;22.67;;;-0.80;1.40;;;-0.03;100.00;94506.42;636475;221;31870;-73
2021/01/03 08:26:50;;;;;;;28.77;17.80;;;-0.80;1.40;;;-0.10;100.00;94507.16;640419;221;23502;-72
2021/01/03 08:29:37;;;;;;;31.33;17.47;;;-0.80;1.40;;;-0.14;100.00;94503.52;641510;220;24539;-73
2021/01/03 08:32:15;;;;;;;30.77;19.50;;;-0.80;1.40;;;-0.26;100.00;94510.09;640362;220;24598;-72
2021/01/03 08:34:43;;;;;;;29.53;19.13;;;-0.80;1.40;;;-0.29;100.00;94515.68;639002;221;25727;-72
2021/01/03 08:37:27;;;;;;;29.30;16.97;;;-0.90;1.40;;;-0.37;100.00;94520.52;639640;221;24518;-71
2021/01/03 08:39:56;;;;;;;30.60;17.73;;;-0.90;1.40;;;-0.27;100.00;94523.09;633686;221;24574;-72
2021/01/03 08:42:28;;;;;;;28.00;16.73;;;-0.80;1.40;;;-0.26;100.00;94525.12;646215;220;24518;-71
2021/01/03 08:44:56;;;;;;;27.87;17.07;;;-0.80;1.40;;;-0.19;100.00;94520.27;634140;223;24509;-72
2021/01/03 08:47:39;;;;;;;28.50;15.60;;;-0.80;1.40;;;-0.24;100.00;94535.30;655416;215;24619;-73
2021/01/03 08:50:11;;;;;;;32.43;17.23;;;-0.80;1.40;;;-0.14;100.00;94536.33;657296;216;25544;-73
2021/01/03 08:52:42;;;;;;;25.10;16.70;;;-0.80;1.40;;;-0.18;100.00;94536.95;642824;221;24547;-73
2021/01/03 08:55:15;;;;;;;32.13;18.10;;;-0.80;1.40;;;-0.18;100.00;94541.74;658548;216;24593;-73
2021/01/03 08:57:43;;;;;;;32.93;18.60;;;-0.80;1.40;;;-0.14;100.00;94545.81;630610;224;24662;-73
2021/01/03 09:00:14;;;;;;;27.43;17.30;;;-0.80;1.40;;;-0.03;100.00;94550.64;638801;223;24533;-73
2021/01/03 09:02:42;;;;;;;30.90;17.60;;;-0.80;1.40;;;-0.01;100.00;94555.93;654456;216;24501;-72
2021/01/03 09:05:12;;;;;;;27.63;18.70;;;-0.70;1.40;;;0.07;100.00;94549.16;657599;215;24624;-73
2021/01/03 09:07:41;;;;;;;24.83;17.03;;;-0.70;1.40;;;0.35;100.00;94550.82;654272;216;24487;-72
2021/01/03 09:10:10;;;;;;;33.10;19.23;;;-0.60;1.40;;;0.30;100.00;94554.91;627825;224;24734;-71
2021/01/03 09:12:39;;;;;;;31.50;20.37;;;-0.50;1.40;;;0.29;100.00;94557.05;647714;215;33087;-71
2021/01/03 09:15:18;;;;;;;33.28;22.20;;;-0.50;1.40;;;0.46;100.00;94562.02;649679;216;31572;-73
2021/01/03 09:17:46;;;;;;;32.43;19.03;;;-0.40;1.40;;;0.57;100.00;94566.02;655411;216;23514;-73
2021/01/03 09:20:37;;;;;;;35.67;19.10;;;-0.40;1.40;;;0.27;100.00;94569.62;654938;216;25500;-73
2021/01/03 09:23:20;;;;;;;33.63;21.70;;;-0.50;1.40;;;0.43;100.00;94577.26;645154;212;31678;-73
2021/01/03 09:25:53;;;;;;;25.83;18.27;;;-0.40;1.40;;;0.48;100.00;94581.05;640944;220;23668;-72
2021/01/03 09:28:29;;;;;;;31.80;17.70;;;-0.30;1.40;;;0.60;100.00;94580.95;643179;220;26169;-72
2021/01/03 09:31:13;;;;;;;25.50;16.97;;;-0.30;1.40;;;0.50;100.00;94586.29;640812;221;24507;-73
2021/01/03 09:33:42;;;;;;;33.83;21.27;;;-0.30;1.40;;;0.41;100.00;94583.76;635512;220;31751;-72
2021/01/03 09:36:46;;;;;;;31.03;20.90;;;-0.30;1.40;;;0.64;100.00;94585.44;639988;220;23734;-72
2021/01/03 09:39:41;;;;;;;31.95;21.52;;;-0.30;1.40;;;0.52;100.00;94588.80;646676;216;32160;-72
2021/01/03 09:42:36;;;;;;;28.00;17.20;;;-0.20;1.40;;;0.61;100.00;94591.09;640480;221;23467;-72
2021/01/03 09:45:22;;;;;;;25.27;15.80;;;-0.20;1.40;;;0.71;100.00;94592.50;631801;221;24603;-72
2021/01/03 09:47:50;;;;;;;30.30;17.33;;;-0.10;1.40;;;0.65;100.00;94594.56;641766;220;24703;-71
2021/01/03 09:50:23;;;;;;;22.37;15.37;;;-0.10;1.40;;;0.75;100.00;94597.55;643498;220;25629;-71
2021/01/03 09:53:13;;;;;;;25.57;17.33;;;-0.10;1.40;;;0.81;100.00;94597.23;631143;225;29847;-71
2021/01/03 09:55:57;;;;;;;28.83;20.17;;;-0.10;1.40;;;0.68;100.00;94602.04;645608;216;31616;-71
2021/01/03 09:58:35;;;;;;;27.20;17.90;;;-0.10;1.40;;;0.59;100.00;94599.98;638732;221;24598;-71
2021/01/03 10:01:03;;;;;;;27.40;17.30;;;-0.20;1.40;;;0.50;100.00;94595.09;642833;219;29795;-71
2021/01/03 10:03:40;;;;;;;32.67;20.65;;;-0.20;1.40;;;0.66;100.00;94602.25;637709;220;31755;-71
2021/01/03 10:06:15;;;;;;;31.10;18.40;;;-0.20;1.40;;;0.45;100.00;94598.70;668886;211;23420;-71
2021/01/03 10:08:43;;;;;;;31.90;19.03;;;-0.30;1.40;;;0.50;100.00;94597.65;647869;219;24539;-71
2021/01/03 10:11:12;;;;;;;26.33;17.23;;;-0.30;1.40;;;0.49;100.00;94592.36;667484;211;24478;-71
2021/01/03 10:13:40;;;;;;;25.17;16.03;;;-0.20;1.40;;;0.50;100.00;94596.16;671940;211;24426;-71
2021/01/03 10:16:16;;;;;;;26.70;16.80;;;-0.30;1.40;;;0.33;100.00;94600.23;639094;220;24505;-70
2021/01/03 10:18:45;;;;;;;28.90;16.93;;;-0.30;1.40;;;0.40;100.00;94591.22;655561;215;24476;-71
2021/01/03 10:21:25;;;;;;;30.77;17.30;;;-0.30;1.40;;;0.38;100.00;94592.60;671289;211;24420;-71
2021/01/03 10:23:54;;;;;;;26.40;16.27;;;-0.30;1.40;;;0.50;100.00;94588.74;669785;211;24454;-71
2021/01/03 10:26:27;;;;;;;25.33;15.90;;;-0.30;1.40;;;0.47;100.00;94587.94;669473;211;24517;-71
2021/01/03 10:28:55;;;;;;;25.23;15.27;;;-0.30;1.40;;;0.38;100.00;94585.08;668056;211;28763;-71
2021/01/03 10:31:25;;;;;;;24.67;15.10;;;-0.30;1.40;;;0.42;100.00;94578.00;672113;211;24550;-71
2021/01/03 10:33:53;;;;;;;22.70;14.73;;;-0.30;1.40;;;0.54;100.00;94579.36;666885;211;31864;-70
2021/01/03 10:36:21;;;;;;;33.10;17.43;;;-0.20;1.40;;;0.46;100.00;94581.75;668897;211;31875;-71
2021/01/03 10:38:50;;;;;;;27.90;16.37;;;-0.20;1.40;;;0.56;100.00;94586.33;642245;220;24371;-71
2021/01/03 10:41:18;;;;;;;29.43;17.40;;;-0.20;1.40;;;0.52;100.00;94580.38;670721;211;24419;-71
2021/01/03 10:43:46;;;;;;;21.83;15.20;;;-0.20;1.40;;;0.51;100.00;94581.76;649054;216;24523;-71
2021/01/03 10:48:52;;;;;;;31.05;20.77;;;-0.20;1.40;;;0.78;100.00;94581.28;645902;212;31619;-69
2021/01/03 10:51:37;;;;;;;31.80;20.88;;;-0.10;1.40;;;0.62;100.00;94581.55;637731;221;31913;-71
2021/01/03 10:54:07;;;;;;;35.87;23.07;;;-0.10;1.40;;;0.69;100.00;94579.69;641349;220;23488;-71
2021/01/03 10:56:34;;;;;;;36.17;28.15;;;-0.10;1.40;;;0.80;100.00;94573.86;635669;221;31729;-70
2021/01/03 10:59:04;;;;;;;30.87;21.73;;;-0.10;1.40;;;0.75;100.00;94573.22;643467;221;23508;-71